Tina-c — 2APY2 — position and weather

sailwx.info

Track history (hours):
 
Tides and Currents Weather Stations Pressure Air Temp Water Temp Dewpoint Dewpoint Depression Visibility Wind Speed Wind Dir Waves Ship Positions

Tina-c

Last reported at 2016-May-25 11:24 UTC. Time now 2016-May-28 06:01 UTC.
Position N 37°51' E 016°01'.

Length 99 m; draft 4.2 m.

Type: Cargo ship. MMSI: 235061987.

Date/timePositionNaut miles runAvg speedWind from/ knotsBaromVisibWave heightAir tempDewpointWater temp
2016-May-25 11:24N 37°51' E 016°01'910.7
2016-May-25 10:31N 37°52' E 015°49'1010.4
2016-May-25 09:34N 37°56' E 015°38'10 9.7
2016-May-25 08:34N 38°06' E 015°34'1111.0
2016-May-25 07:33N 38°16' E 015°40'10 9.9
2016-May-25 06:33N 38°21' E 015°29'1211.9
2016-May-25 05:33N 38°19' E 015°14'1211.7
2016-May-25 04:32N 38°18' E 014°59'3911.5
2016-May-25 01:07N 38°18' E 014°09'1711.0
2016-May-24 23:33N 38°17' E 013°47'1111.0
2016-May-24 22:34N 38°17' E 013°33'1111.1
2016-May-24 21:34N 38°17' E 013°19'1110.8
2016-May-24 20:33N 38°17' E 013°05'2711.1
2016-May-24 18:09N 38°15' E 012°31'710.8
2016-May-24 17:32N 38°14' E 012°23'63 8.9
2016-May-24 10:28N 37°52' E 011°08'123 3.0
2016-May-22 17:07N 35°50' E 010°41'0 0.0
2016-May-22 16:28N 35°50' E 010°41'  
2016-May-18 13:29N 35°50' E 010°39'0 0.0
2016-May-18 11:29N 35°50' E 010°39'  
Track history (hours):
 
Tides and Currents Weather Stations Pressure Air Temp Water Temp Dewpoint Dewpoint Depression Visibility Wind Speed Wind Dir Waves Ship Positions

Tina-c

Last reported at 2016-May-25 11:24 UTC. Time now 2016-May-28 06:01 UTC.
Position N 37°51' E 016°01'.

Length 99 m; draft 4.2 m.

Type: Cargo ship. MMSI: 235061987.

Date/timePositionNaut miles runAvg speedWind from/ knotsBaromVisibWave heightAir tempDewpointWater temp
2016-May-25 11:24N 37°51' E 016°01'910.7
2016-May-25 10:31N 37°52' E 015°49'1010.4
2016-May-25 09:34N 37°56' E 015°38'10 9.7
2016-May-25 08:34N 38°06' E 015°34'1111.0
2016-May-25 07:33N 38°16' E 015°40'10 9.9
2016-May-25 06:33N 38°21' E 015°29'1211.9
2016-May-25 05:33N 38°19' E 015°14'1211.7
2016-May-25 04:32N 38°18' E 014°59'3911.5
2016-May-25 01:07N 38°18' E 014°09'1711.0
2016-May-24 23:33N 38°17' E 013°47'1111.0
2016-May-24 22:34N 38°17' E 013°33'1111.1
2016-May-24 21:34N 38°17' E 013°19'1110.8
2016-May-24 20:33N 38°17' E 013°05'2711.1
2016-May-24 18:09N 38°15' E 012°31'710.8
2016-May-24 17:32N 38°14' E 012°23'63 8.9
2016-May-24 10:28N 37°52' E 011°08'123 3.0
2016-May-22 17:07N 35°50' E 010°41'0 0.0
2016-May-22 16:28N 35°50' E 010°41'  
2016-May-18 13:29N 35°50' E 010°39'0 0.0
2016-May-18 11:29N 35°50' E 010°39'  

Dump ship's entire track history